createdAt,value
2018-05-15T00:00:30.975Z,100745.61
2018-05-15T00:02:59.370Z,100751.66
2018-05-15T00:05:28.542Z,100747.77
2018-05-15T00:07:56.934Z,100750.36
2018-05-15T00:10:25.390Z,100752.94
2018-05-15T00:12:53.773Z,100755.95
2018-05-15T00:15:22.153Z,100759.84
2018-05-15T00:17:50.581Z,100758.92
2018-05-15T00:20:18.966Z,100763.72
2018-05-15T00:22:47.425Z,100767.52
2018-05-15T00:25:15.823Z,100773.14
2018-05-15T00:27:44.217Z,100778.75
2018-05-15T00:30:12.578Z,100780.91
2018-05-15T00:32:40.962Z,100782.14
2018-05-15T00:35:10.127Z,100785.65
2018-05-15T00:37:38.502Z,100783.91
2018-05-15T00:40:06.919Z,100787.72
2018-05-15T00:42:35.337Z,100786.03
2018-05-15T00:45:03.723Z,100781.61
2018-05-15T00:47:32.090Z,100781.15
2018-05-15T00:50:00.469Z,100785.46
2018-05-15T00:52:28.845Z,100789.37
2018-05-15T00:55:14.978Z,100787.17
2018-05-15T00:57:43.360Z,100784.91
2018-05-15T01:00:12.593Z,100782.68
2018-05-15T01:02:40.993Z,100785.25
2018-05-15T01:05:09.381Z,100786.99
2018-05-15T01:07:37.789Z,100796.47
2018-05-15T01:10:06.202Z,100787.77
2018-05-15T01:12:34.603Z,100788.16
2018-05-15T01:15:02.998Z,100794.23
2018-05-15T01:17:31.399Z,100795.67
2018-05-15T01:19:59.795Z,100792.09
2018-05-15T01:22:28.217Z,100791.36
2018-05-15T01:24:57.358Z,100788.36
2018-05-15T01:27:25.790Z,100790.06
2018-05-15T01:29:54.908Z,100790.09
2018-05-15T01:32:23.310Z,100793.50
2018-05-15T01:34:51.707Z,100795.27
2018-05-15T01:37:20.130Z,100793.56
2018-05-15T01:39:48.515Z,100791.27
2018-05-15T01:42:16.915Z,100790.30
2018-05-15T01:44:45.333Z,100783.20
2018-05-15T01:47:13.805Z,100786.17
2018-05-15T01:49:42.181Z,100790.03
2018-05-15T01:52:10.573Z,100791.77
2018-05-15T01:54:38.953Z,100789.64
2018-05-15T01:57:07.353Z,100785.70
2018-05-15T01:59:35.731Z,100781.79
2018-05-15T02:02:04.149Z,100793.47
2018-05-15T02:04:32.531Z,100793.82
2018-05-15T02:07:00.910Z,100793.27
2018-05-15T02:09:29.309Z,100791.84
2018-05-15T02:11:57.755Z,100792.61
2018-05-15T02:14:26.129Z,100787.77
2018-05-15T02:16:54.521Z,100792.48
2018-05-15T02:19:22.890Z,100787.19
2018-05-15T02:21:51.351Z,100794.52
2018-05-15T02:24:19.742Z,100795.28
2018-05-15T02:26:48.114Z,100787.42
2018-05-15T02:29:16.494Z,100792.53
2018-05-15T02:31:45.628Z,100793.78
2018-05-15T02:34:14.018Z,100791.12
2018-05-15T02:36:42.419Z,100789.34
2018-05-15T02:39:10.867Z,100794.92
2018-05-15T02:41:39.238Z,100797.62
2018-05-15T02:44:07.621Z,100800.08
2018-05-15T02:46:36.020Z,100794.00
2018-05-15T02:49:04.418Z,100800.00
2018-05-15T02:51:32.822Z,100796.87
2018-05-15T02:54:01.238Z,100796.34
2018-05-15T02:56:30.414Z,100795.84
2018-05-15T02:58:59.017Z,100793.19
2018-05-15T03:01:28.283Z,100790.48
2018-05-15T03:03:56.670Z,100797.81
2018-05-15T03:06:25.846Z,100794.23
2018-05-15T03:08:54.231Z,100802.41
2018-05-15T03:11:22.614Z,100801.48
2018-05-15T03:13:51.010Z,100807.05
2018-05-15T03:16:19.414Z,100803.10
2018-05-15T03:18:47.798Z,100803.47
2018-05-15T03:21:16.194Z,100803.84
2018-05-15T03:23:44.570Z,100810.31
2018-05-15T03:26:12.945Z,100808.41
2018-05-15T03:28:41.340Z,100808.41
2018-05-15T03:31:09.732Z,100818.41
2018-05-15T03:33:38.110Z,100817.61
2018-05-15T03:36:06.505Z,100822.48
2018-05-15T03:38:34.902Z,100821.14
2018-05-15T03:41:04.096Z,100823.86
2018-05-15T03:43:33.277Z,100819.47
2018-05-15T03:46:01.653Z,100819.96
2018-05-15T03:48:30.042Z,100822.06
2018-05-15T03:50:58.423Z,100824.52
2018-05-15T03:53:26.829Z,100821.86
2018-05-15T03:55:56.016Z,100822.23
2018-05-15T03:58:24.414Z,100832.99
2018-05-15T04:01:11.221Z,100832.20
2018-05-15T04:03:57.977Z,100836.14
2018-05-15T04:06:44.142Z,100841.40
2018-05-15T04:09:12.519Z,100839.66
2018-05-15T04:11:40.914Z,100849.61
2018-05-15T04:14:09.288Z,100847.09
2018-05-15T04:16:37.877Z,100846.30
2018-05-15T04:19:06.253Z,100857.60
2018-05-15T04:21:34.659Z,100853.23
2018-05-15T04:24:03.042Z,100850.26
2018-05-15T04:26:32.206Z,100852.42
2018-05-15T04:29:00.592Z,100855.03
2018-05-15T04:31:29.767Z,100851.20
2018-05-15T04:33:58.173Z,100850.39
2018-05-15T04:36:27.383Z,100849.09
2018-05-15T04:38:55.814Z,100844.89
2018-05-15T04:41:24.197Z,100851.07
2018-05-15T04:43:52.881Z,100847.67
2018-05-15T04:46:21.012Z,100851.69
2018-05-15T04:48:50.284Z,100858.73
2018-05-15T04:51:18.677Z,100857.98
2018-05-15T04:53:47.882Z,100860.27
2018-05-15T04:56:17.061Z,100859.13
2018-05-15T04:58:45.456Z,100861.90
2018-05-15T05:01:13.918Z,100859.46
2018-05-15T05:03:42.350Z,100865.69
2018-05-15T05:06:11.500Z,100861.50
2018-05-15T05:08:39.998Z,100863.04
2018-05-15T05:11:08.383Z,100862.86
2018-05-15T05:13:36.765Z,100863.42
2018-05-15T05:16:05.150Z,100868.33
2018-05-15T05:18:33.542Z,100868.53
2018-05-15T05:21:01.996Z,100863.94
2018-05-15T05:23:30.404Z,100869.41
2018-05-15T05:25:58.816Z,100869.12
2018-05-15T05:28:28.002Z,100869.23
2018-05-15T05:30:56.382Z,100865.10
2018-05-15T05:33:24.809Z,100875.66
2018-05-15T05:35:53.155Z,100874.97
2018-05-15T05:38:21.550Z,100872.91
2018-05-15T05:40:50.681Z,100882.09
2018-05-15T05:43:19.069Z,100883.83
2018-05-15T05:45:47.492Z,100879.43
2018-05-15T05:48:16.734Z,100882.42
2018-05-15T05:50:45.130Z,100888.05
2018-05-15T05:53:13.561Z,100890.59
2018-05-15T05:55:41.977Z,100895.16
2018-05-15T05:58:11.153Z,100891.95
2018-05-15T06:00:39.526Z,100897.04
2018-05-15T06:03:07.934Z,100889.53
2018-05-15T06:05:37.114Z,100891.50
2018-05-15T06:08:05.498Z,100897.55
2018-05-15T06:10:33.887Z,100902.40
2018-05-15T06:13:02.274Z,100902.21
2018-05-15T06:15:30.650Z,100907.58
2018-05-15T06:17:59.102Z,100908.31
2018-05-15T06:20:27.495Z,100905.56
2018-05-15T06:22:55.883Z,100908.27
2018-05-15T06:25:24.261Z,100905.33
2018-05-15T06:27:52.717Z,100910.73
2018-05-15T06:30:21.085Z,100915.31
2018-05-15T06:32:50.280Z,100913.97
2018-05-15T06:35:18.596Z,100915.02
2018-05-15T06:37:46.977Z,100911.50
2018-05-15T06:40:15.337Z,100924.85
2018-05-15T06:42:43.805Z,100914.98
2018-05-15T06:45:12.937Z,100914.42
2018-05-15T06:47:41.338Z,100916.63
2018-05-15T06:50:09.801Z,100917.73
2018-05-15T06:52:38.281Z,100920.05
2018-05-15T06:55:06.643Z,100924.38
2018-05-15T06:57:35.844Z,100920.35
2018-05-15T07:00:04.193Z,100926.50
2018-05-15T07:02:32.566Z,100925.17
2018-05-15T07:05:00.929Z,100920.18
2018-05-15T07:07:29.434Z,100922.87
2018-05-15T07:09:57.882Z,100917.24
2018-05-15T07:12:26.271Z,100924.77
2018-05-15T07:14:54.653Z,100924.29
2018-05-15T07:17:23.054Z,100926.34
2018-05-15T07:19:51.415Z,100927.70
2018-05-15T07:22:19.798Z,100924.28
2018-05-15T07:24:48.187Z,100919.23
2018-05-15T07:27:16.656Z,100925.06
2018-05-15T07:29:44.939Z,100916.69
2018-05-15T07:32:14.106Z,100924.28
2018-05-15T07:34:42.481Z,100920.62
2018-05-15T07:37:10.882Z,100925.91
2018-05-15T07:39:39.273Z,100930.19
2018-05-15T07:42:08.444Z,100932.10
2018-05-15T07:44:36.914Z,100932.36
2018-05-15T07:47:05.283Z,100932.59
2018-05-15T07:49:33.685Z,100936.41
2018-05-15T07:52:02.090Z,100934.97
2018-05-15T07:54:30.478Z,100925.11
2018-05-15T07:56:58.849Z,100935.88
2018-05-15T07:59:27.245Z,100933.02
2018-05-15T08:01:55.625Z,100932.05
2018-05-15T08:04:24.082Z,100932.30
2018-05-15T08:06:52.368Z,100937.34
2018-05-15T08:09:20.758Z,100935.48
2018-05-15T08:11:49.142Z,100932.04
2018-05-15T08:14:17.519Z,100939.78
2018-05-15T08:16:45.945Z,100940.45
2018-05-15T08:19:15.115Z,100933.88
2018-05-15T08:21:43.476Z,100936.91
2018-05-15T08:24:11.839Z,100938.22
2018-05-15T08:26:40.289Z,100936.41
2018-05-15T08:29:09.440Z,100937.82
2018-05-15T08:31:37.806Z,100934.92
2018-05-15T08:34:06.193Z,100934.30
2018-05-15T08:36:34.573Z,100936.78
2018-05-15T08:39:02.965Z,100937.68
2018-05-15T08:41:31.337Z,100941.00
2018-05-15T08:43:59.798Z,100947.89
2018-05-15T08:46:28.277Z,100939.03
2018-05-15T08:48:57.632Z,100941.80
2018-05-15T08:51:26.022Z,100936.69
2018-05-15T08:53:54.414Z,100937.93
2018-05-15T08:56:22.789Z,100937.70
2018-05-15T08:58:51.255Z,100937.53
2018-05-15T09:01:19.681Z,100939.16
2018-05-15T09:03:48.058Z,100929.54
2018-05-15T09:06:16.415Z,100927.00
2018-05-15T09:08:44.809Z,100929.31
2018-05-15T09:11:13.182Z,100923.80
2018-05-15T09:13:41.546Z,100931.59
2018-05-15T09:16:09.931Z,100926.27
2018-05-15T09:18:38.334Z,100927.11
2018-05-15T09:21:06.716Z,100934.41
2018-05-15T09:23:35.089Z,100928.99
2018-05-15T09:26:03.461Z,100924.52
2018-05-15T09:28:31.946Z,100925.75
2018-05-15T09:31:00.365Z,100925.80
2018-05-15T09:33:28.753Z,100924.35
2018-05-15T09:35:57.134Z,100924.79
2018-05-15T09:38:25.500Z,100923.06
2018-05-15T09:40:53.882Z,100919.91
2018-05-15T09:46:38.470Z,100927.55
2018-05-15T09:49:06.847Z,100930.89
2018-05-15T09:51:35.254Z,100933.52
2018-05-15T09:54:04.437Z,100934.30
2018-05-15T09:56:32.797Z,100937.35
2018-05-15T09:59:01.185Z,100935.92
2018-05-15T10:01:29.574Z,100925.48
2018-05-15T10:03:58.020Z,100925.31
2018-05-15T10:06:26.381Z,100927.66
2018-05-15T10:08:55.545Z,100925.48
2018-05-15T10:11:23.938Z,100938.70
2018-05-15T10:13:52.358Z,100934.17
2018-05-15T10:16:20.734Z,100931.80
2018-05-15T10:18:49.889Z,100930.80
2018-05-15T10:21:18.282Z,100916.09
2018-05-15T10:23:46.676Z,100915.64
2018-05-15T10:26:15.177Z,100914.59
2018-05-15T10:28:44.236Z,100916.23
2018-05-15T10:31:12.633Z,100918.51
2018-05-15T10:33:41.072Z,100920.66
2018-05-15T10:36:09.462Z,100909.19
2018-05-15T10:38:37.798Z,100916.95
2018-05-15T10:41:06.166Z,100910.64
2018-05-15T10:43:34.550Z,100909.69
2018-05-15T10:46:02.991Z,100907.80
2018-05-15T10:48:31.442Z,100908.92
2018-05-15T10:50:59.837Z,100906.94
2018-05-15T10:53:28.985Z,100909.77
2018-05-15T10:55:57.370Z,100899.34
2018-05-15T10:58:25.758Z,100901.65
2018-05-15T11:00:54.133Z,100902.65
2018-05-15T11:03:22.505Z,100903.44
2018-05-15T11:05:50.882Z,100902.32
2018-05-15T11:08:19.329Z,100901.51
2018-05-15T11:10:48.465Z,100897.58
2018-05-15T11:13:16.927Z,100906.19
2018-05-15T11:15:45.311Z,100907.22
2018-05-15T11:18:49.741Z,100901.09
2018-05-15T11:21:35.921Z,100899.91
2018-05-15T11:27:05.557Z,100902.42
2018-05-15T11:29:33.965Z,100899.05
2018-05-15T11:32:02.350Z,100895.00
2018-05-15T11:34:30.732Z,100894.72
2018-05-15T11:36:59.134Z,100898.80
2018-05-15T11:39:27.517Z,100895.01
2018-05-15T11:41:55.958Z,100899.02
2018-05-15T11:44:24.281Z,100900.45
2018-05-15T11:46:52.688Z,100897.08
2018-05-15T11:49:22.757Z,100899.23
2018-05-15T11:51:51.119Z,100898.31
2018-05-15T11:54:18.632Z,100899.53
2018-05-15T11:56:47.022Z,100897.56
2018-05-15T11:59:15.387Z,100898.11
2018-05-15T12:01:43.937Z,100894.97
2018-05-15T12:04:12.523Z,100898.17
2018-05-15T12:06:40.898Z,100890.42
2018-05-15T12:09:09.341Z,100895.70
2018-05-15T12:11:37.697Z,100896.11
2018-05-15T12:14:06.086Z,100889.72
2018-05-15T12:16:34.471Z,100891.30
2018-05-15T12:19:02.850Z,100898.32
2018-05-15T12:21:31.226Z,100893.66
2018-05-15T12:23:59.619Z,100895.30
2018-05-15T12:26:27.995Z,100897.38
2018-05-15T12:28:56.382Z,100896.48
2018-05-15T12:31:24.773Z,100891.56
2018-05-15T12:33:53.149Z,100888.08
2018-05-15T12:36:22.318Z,100887.27
2018-05-15T12:38:50.682Z,100891.15
2018-05-15T12:41:19.155Z,100889.28
2018-05-15T12:43:47.443Z,100885.39
2018-05-15T12:46:15.991Z,100887.41
2018-05-15T12:48:44.457Z,100894.63
2018-05-15T12:51:12.802Z,100888.25
2018-05-15T12:53:41.179Z,100895.75
2018-05-15T12:56:10.348Z,100896.43
2018-05-15T12:58:38.753Z,100888.50
2018-05-15T13:01:07.954Z,100890.46
2018-05-15T13:03:37.115Z,100884.15
2018-05-15T13:06:05.573Z,100886.33
2018-05-15T13:08:33.975Z,100882.80
2018-05-15T13:11:02.404Z,100884.29
2018-05-15T13:13:30.815Z,100881.00
2018-05-15T13:15:59.190Z,100882.92
2018-05-15T13:18:28.454Z,100883.22
2018-05-15T13:20:56.738Z,100876.14
2018-05-15T13:23:25.128Z,100877.20
2018-05-15T13:25:53.507Z,100873.71
2018-05-15T13:28:22.098Z,100868.61
2018-05-15T13:30:50.494Z,100866.06
2018-05-15T13:33:18.866Z,100859.47
2018-05-15T13:35:47.365Z,100856.24
2018-05-15T13:38:16.601Z,100870.64
2018-05-15T13:40:44.995Z,100867.14
2018-05-15T13:43:13.473Z,100859.63
2018-05-15T13:45:41.857Z,100854.11
2018-05-15T13:48:10.261Z,100850.67
2018-05-15T13:50:38.752Z,100843.77
2018-05-15T13:53:07.115Z,100835.60
2018-05-15T13:55:35.498Z,100838.48
2018-05-15T13:58:03.885Z,100835.50
2018-05-15T14:00:32.281Z,100820.35
2018-05-15T14:03:00.657Z,100826.84
2018-05-15T14:05:29.063Z,100838.13
2018-05-15T14:07:57.551Z,100834.83
2018-05-15T14:10:25.956Z,100839.27
2018-05-15T14:12:55.181Z,100837.95
2018-05-15T14:15:23.692Z,100837.61
2018-05-15T14:17:52.062Z,100830.31
2018-05-15T14:20:21.430Z,100833.97
2018-05-15T14:22:50.559Z,100826.85
2018-05-15T14:25:18.950Z,100827.70
2018-05-15T14:27:47.339Z,100821.08
2018-05-15T14:30:15.726Z,100814.91
2018-05-15T14:32:44.110Z,100817.53
2018-05-15T14:35:12.511Z,100821.42
2018-05-15T14:37:41.653Z,100809.59
2018-05-15T14:40:10.810Z,100818.23
2018-05-15T14:42:56.861Z,100817.36
2018-05-15T14:45:25.237Z,100813.96
2018-05-15T14:47:53.628Z,100813.00
2018-05-15T14:50:22.005Z,100811.13
2018-05-15T14:52:50.622Z,100812.52
2018-05-15T14:55:19.052Z,100807.84
2018-05-15T14:57:47.439Z,100811.48
2018-05-15T15:00:15.911Z,100816.72
2018-05-15T15:02:44.306Z,100813.81
2018-05-15T15:05:12.871Z,100818.06
2018-05-15T15:07:41.255Z,100812.20
2018-05-15T15:10:09.650Z,100803.06
2018-05-15T15:12:38.870Z,100808.37
2018-05-15T15:15:08.145Z,100805.36
2018-05-15T15:17:36.582Z,100803.05
2018-05-15T15:20:05.077Z,100796.92
2018-05-15T15:22:33.532Z,100800.89
2018-05-15T15:25:02.839Z,100798.33
2018-05-15T15:27:31.985Z,100800.38
2018-05-15T15:30:00.381Z,100798.91
2018-05-15T15:32:28.801Z,100795.11
2018-05-15T15:34:57.973Z,100785.51
2018-05-15T15:37:26.387Z,100783.08
2018-05-15T15:39:55.521Z,100780.20
2018-05-15T15:42:24.069Z,100782.18
2018-05-15T15:44:52.396Z,100781.34
2018-05-15T15:47:20.803Z,100777.72
2018-05-15T15:49:49.192Z,100782.55
2018-05-15T15:52:17.690Z,100783.08
2018-05-15T15:54:46.850Z,100781.92
2018-05-15T15:57:15.255Z,100785.08
2018-05-15T15:59:43.666Z,100776.64
2018-05-15T16:02:13.601Z,100783.41
2018-05-15T16:04:42.746Z,100791.45
2018-05-15T16:07:11.167Z,100786.78
2018-05-15T16:09:41.054Z,100782.45
2018-05-15T16:12:09.464Z,100782.83
2018-05-15T16:14:37.840Z,100782.84
2018-05-15T16:17:07.048Z,100781.12
2018-05-15T16:19:35.601Z,100774.60
2018-05-15T16:22:04.139Z,100782.16
2018-05-15T16:24:32.466Z,100781.04
2018-05-15T16:27:00.861Z,100778.50
2018-05-15T16:29:29.238Z,100774.16
2018-05-15T16:31:57.614Z,100782.67
2018-05-15T16:34:26.053Z,100782.21
2018-05-15T16:36:55.197Z,100775.42
2018-05-15T16:39:23.577Z,100780.95
2018-05-15T16:41:51.994Z,100779.76
2018-05-15T16:44:20.470Z,100771.81
2018-05-15T16:46:48.874Z,100774.83
2018-05-15T16:49:17.258Z,100776.77
2018-05-15T16:51:45.717Z,100779.92
2018-05-15T16:54:14.088Z,100784.27
2018-05-15T16:56:42.547Z,100782.28
2018-05-15T16:59:10.933Z,100781.66
2018-05-15T17:01:39.329Z,100778.20
2018-05-15T17:04:07.741Z,100775.11
2018-05-15T17:06:36.131Z,100777.36
2018-05-15T17:09:06.822Z,100777.52
2018-05-15T17:11:35.205Z,100774.36
2018-05-15T17:14:03.598Z,100779.98
2018-05-15T17:16:31.979Z,100781.99
2018-05-15T17:19:00.404Z,100782.40
2018-05-15T17:21:28.913Z,100780.02
2018-05-15T17:23:58.066Z,100780.88
2018-05-15T17:26:26.447Z,100777.56
2018-05-15T17:28:54.856Z,100773.86
2018-05-15T17:31:23.315Z,100780.70
2018-05-15T17:33:51.676Z,100782.13
2018-05-15T17:36:20.073Z,100784.06
2018-05-15T17:38:48.634Z,100784.09
2018-05-15T17:41:17.790Z,100781.94
2018-05-15T17:43:46.331Z,100781.52
2018-05-15T17:46:14.720Z,100792.22
2018-05-15T17:48:43.150Z,100785.81
2018-05-15T17:51:11.588Z,100787.25
2018-05-15T17:53:40.008Z,100797.06
2018-05-15T17:56:08.410Z,100791.83
2018-05-15T17:58:36.835Z,100795.73
2018-05-15T18:01:05.273Z,100793.44
2018-05-15T18:03:33.769Z,100798.95
2018-05-15T18:06:02.183Z,100797.41
2018-05-15T18:08:30.584Z,100800.33
2018-05-15T18:10:58.989Z,100800.08
2018-05-15T18:13:27.366Z,100796.05
2018-05-15T18:15:55.826Z,100793.73
2018-05-15T18:18:24.217Z,100789.06
2018-05-15T18:20:52.613Z,100792.50
2018-05-15T18:23:21.013Z,100800.31
2018-05-15T18:25:49.398Z,100795.37
2018-05-15T18:28:17.793Z,100797.94
2018-05-15T18:30:46.209Z,100792.95
2018-05-15T18:33:15.432Z,100795.87
2018-05-15T18:35:44.780Z,100794.94
2018-05-15T18:38:13.323Z,100799.23
2018-05-15T18:40:41.752Z,100796.78
2018-05-15T18:43:10.230Z,100802.91
2018-05-15T18:45:38.612Z,100800.80
2018-05-15T18:48:07.041Z,100807.83
2018-05-15T18:50:36.248Z,100806.19
2018-05-15T18:53:05.398Z,100806.16
2018-05-15T18:55:33.782Z,100810.92
2018-05-15T18:58:02.226Z,100812.03
2018-05-15T19:00:30.671Z,100815.72
2018-05-15T19:02:59.078Z,100813.11
2018-05-15T19:05:28.251Z,100816.91
2018-05-15T19:07:56.681Z,100816.44
2018-05-15T19:10:25.072Z,100814.80
2018-05-15T19:13:25.937Z,100826.56
2018-05-15T19:15:54.322Z,100829.99
2018-05-15T19:18:22.748Z,100836.79
2018-05-15T19:20:51.139Z,100833.92
2018-05-15T19:23:19.520Z,100835.08
2018-05-15T19:25:47.977Z,100833.38
2018-05-15T19:28:16.389Z,100836.33
2018-05-15T19:30:44.798Z,100836.19
2018-05-15T19:33:17.071Z,100840.45
2018-05-15T19:35:46.206Z,100839.39
2018-05-15T19:38:14.749Z,100835.73
2018-05-15T19:40:51.302Z,100837.17
2018-05-15T19:43:19.669Z,100835.97
2018-05-15T19:45:48.845Z,100836.30
2018-05-15T19:48:17.230Z,100840.73
2018-05-15T19:50:46.403Z,100838.21
2018-05-15T19:53:14.788Z,100844.16
2018-05-15T19:55:43.182Z,100842.09
2018-05-15T19:58:11.606Z,100838.83
2018-05-15T20:00:40.793Z,100842.89
2018-05-15T20:03:09.304Z,100842.77
2018-05-15T20:05:37.676Z,100847.69
2018-05-15T20:08:06.164Z,100848.27
2018-05-15T20:10:35.314Z,100843.99
2018-05-15T20:13:03.713Z,100847.64
2018-05-15T20:15:32.178Z,100847.75
2018-05-15T20:18:00.605Z,100851.37
2018-05-15T20:20:29.769Z,100850.97
2018-05-15T20:22:58.189Z,100849.76
2018-05-15T20:25:27.334Z,100852.45
2018-05-15T20:27:55.800Z,100858.19
2018-05-15T20:30:24.243Z,100853.90
2018-05-15T20:32:54.152Z,100846.48
2018-05-15T20:35:22.569Z,100851.33
2018-05-15T20:37:51.761Z,100850.55
2018-05-15T20:40:20.926Z,100857.20
2018-05-15T20:42:49.318Z,100861.19
2018-05-15T20:45:17.725Z,100857.36
2018-05-15T20:47:47.647Z,100854.37
2018-05-15T20:50:16.803Z,100858.31
2018-05-15T20:52:45.208Z,100856.64
2018-05-15T20:55:13.619Z,100851.42
2018-05-15T20:57:42.767Z,100852.30
2018-05-15T21:00:11.146Z,100854.52
2018-05-15T21:02:39.649Z,100851.88
2018-05-15T21:05:08.063Z,100852.78
2018-05-15T21:07:37.217Z,100849.75
2018-05-15T21:10:05.699Z,100848.03
2018-05-15T21:12:34.119Z,100846.31
2018-05-15T21:15:02.516Z,100848.08
2018-05-15T21:17:31.014Z,100846.78
2018-05-15T21:19:59.418Z,100841.11
2018-05-15T21:22:27.817Z,100843.73
2018-05-15T21:24:56.342Z,100838.48
2018-05-15T21:27:24.878Z,100838.95
2018-05-15T21:29:53.273Z,100836.34
2018-05-15T21:32:21.662Z,100842.42
2018-05-15T21:34:50.102Z,100836.34
2018-05-15T21:37:19.286Z,100837.20
2018-05-15T21:39:47.702Z,100838.97
2018-05-15T21:42:16.304Z,100829.81
2018-05-15T21:44:44.955Z,100835.91
2018-05-15T21:47:13.381Z,100831.10
2018-05-15T21:49:42.509Z,100838.04
2018-05-15T21:52:10.914Z,100838.47
2018-05-15T21:54:39.333Z,100845.00
2018-05-15T21:57:07.727Z,100835.84
2018-05-15T21:59:36.119Z,100837.58
2018-05-15T22:02:04.510Z,100837.60
2018-05-15T22:04:32.898Z,100840.21
2018-05-15T22:07:01.325Z,100835.84
2018-05-15T22:09:29.698Z,100834.08
2018-05-15T22:12:15.974Z,100831.48
2018-05-15T22:15:02.110Z,100834.09
2018-05-15T22:17:48.198Z,100826.26
2018-05-15T22:20:34.303Z,100826.69
2018-05-15T22:23:01.830Z,100818.41
2018-05-15T22:25:31.123Z,100820.23
2018-05-15T22:27:59.526Z,100819.80
2018-05-15T22:30:28.850Z,100820.22
2018-05-15T22:32:57.247Z,100808.91
2018-05-15T22:35:25.823Z,100808.44
2018-05-15T22:37:54.225Z,100800.59
2018-05-15T22:40:22.637Z,100805.83
2018-05-15T22:42:51.026Z,100805.38
2018-05-15T22:45:19.417Z,100801.01
2018-05-15T22:47:47.791Z,100797.10
2018-05-15T22:50:16.169Z,100799.72
2018-05-15T22:52:44.581Z,100799.27
2018-05-15T22:55:13.752Z,100800.58
2018-05-15T22:57:42.163Z,100794.90
2018-05-15T23:00:11.334Z,100797.51
2018-05-15T23:02:39.723Z,100796.66
2018-05-15T23:05:08.129Z,100793.59
2018-05-15T23:07:37.263Z,100792.28
2018-05-15T23:10:05.734Z,100787.06
2018-05-15T23:12:34.118Z,100786.18
2018-05-15T23:15:02.500Z,100789.20
2018-05-15T23:17:30.954Z,100789.21
2018-05-15T23:20:00.106Z,100788.33
2018-05-15T23:22:42.179Z,100782.63
2018-05-15T23:25:10.570Z,100783.05
2018-05-15T23:27:38.958Z,100785.63
2018-05-15T23:30:07.445Z,100780.36
2018-05-15T23:32:35.842Z,100780.36
2018-05-15T23:35:04.218Z,100772.94
2018-05-15T23:37:32.594Z,100776.84
2018-05-15T23:40:01.003Z,100778.15
2018-05-15T23:42:29.381Z,100785.98
2018-05-15T23:44:57.789Z,100778.13
2018-05-15T23:47:26.219Z,100782.09
2018-05-15T23:49:54.617Z,100781.63
2018-05-15T23:52:23.069Z,100786.41
2018-05-15T23:54:52.260Z,100777.53
2018-05-15T23:57:21.442Z,100776.16
2018-05-15T23:59:49.833Z,100769.52
